MKJS/MBJ METAR and TAF weather

Enter ICAO airport designator
Station Type Date Time Source
MKJS METAR 2024/06/16 00:00 UTC NOAA

MKJS 160000Z 08007KT 9999 FEW024 31/24 Q1011


Station Type Date Time Source
MKJS Decoded METAR 2024/06/16 00:00 UTC NOAA

Montego Bay / Sangster, Jamaica (MKJS) 18-30N 077-55W 8M
Jun 15, 2024 - 08:00 PM EDT / 2024.06.16 0000 UTC
Wind: from the E (080 degrees) at 8 MPH (7 KT):0
Visibility: greater than 7 mile(s):0
Sky conditions: mostly clear
Temperature: 87 F (31 C)
Heat index: 95.7 F (35.4 C):1
Dew Point: 75 F (24 C)
Relative Humidity: 66%
Pressure (altimeter): 29.85 in. Hg (1011 hPa)
ob: MKJS 160000Z 08007KT 9999 FEW024 31/24 Q1011
cycle: 0

Station Type Date Time Source
MKJS TAF 2024/06/15 18:06 UTC NOAA